createdAt,value
2023-05-14T00:02:12.909Z,9.00
2023-05-14T00:17:34.213Z,7.30
2023-05-14T00:32:55.326Z,8.00
2023-05-14T00:48:16.517Z,7.63
2023-05-14T01:03:37.962Z,9.23
2023-05-14T01:18:59.476Z,8.53
2023-05-14T01:34:21.316Z,7.70
2023-05-14T01:49:42.714Z,6.33
2023-05-14T02:05:06.319Z,7.97
2023-05-14T02:20:28.095Z,6.90
2023-05-14T02:35:49.231Z,7.10
2023-05-14T02:51:11.211Z,7.10
2023-05-14T03:06:32.737Z,4.80
2023-05-14T03:21:54.228Z,6.13
2023-05-14T03:37:15.831Z,7.10
2023-05-14T03:52:37.361Z,5.20
2023-05-14T04:07:58.501Z,6.77
2023-05-14T04:23:19.844Z,6.80
2023-05-14T04:38:41.758Z,6.83
2023-05-14T04:54:03.139Z,7.77
2023-05-14T05:09:24.271Z,9.70
2023-05-14T05:24:46.021Z,9.93
2023-05-14T05:40:08.314Z,8.53
2023-05-14T05:55:29.648Z,3.27
2023-05-14T06:10:50.780Z,3.40
2023-05-14T06:26:11.942Z,3.50
2023-05-14T06:41:33.185Z,5.20
2023-05-14T06:56:54.657Z,2.83
2023-05-14T07:12:15.975Z,2.83
2023-05-14T07:27:37.277Z,4.80
2023-05-14T07:42:58.411Z,3.97
2023-05-14T07:58:19.380Z,3.33
2023-05-14T08:13:40.573Z,3.30
2023-05-14T08:29:02.041Z,3.60
2023-05-14T08:44:26.848Z,2.63
2023-05-14T08:59:48.742Z,2.40
2023-05-14T09:15:10.348Z,3.00
2023-05-14T09:30:31.850Z,5.47
2023-05-14T09:45:53.509Z,5.67
2023-05-14T10:01:15.022Z,2.93
2023-05-14T10:16:41.337Z,3.53
2023-05-14T10:32:05.637Z,9.30
2023-05-14T10:47:28.339Z,9.33
2023-05-14T11:02:49.946Z,6.80
2023-05-14T11:18:11.182Z,7.20
2023-05-14T11:33:32.673Z,3.13
2023-05-14T11:48:53.797Z,4.70
2023-05-14T12:04:15.310Z,3.27
2023-05-14T12:19:36.346Z,2.30
2023-05-14T12:34:57.821Z,2.37
2023-05-14T12:50:19.336Z,3.20
2023-05-14T13:05:43.506Z,2.63
2023-05-14T13:21:06.657Z,3.40
2023-05-14T13:36:28.070Z,2.57
2023-05-14T13:51:49.355Z,2.40
2023-05-14T14:07:10.866Z,1.93
2023-05-14T14:22:32.366Z,2.33
2023-05-14T14:37:55.841Z,2.07
2023-05-14T14:53:17.037Z,1.90
2023-05-14T15:08:38.540Z,2.00
2023-05-14T15:23:59.567Z,2.60
2023-05-14T15:39:20.647Z,2.40
2023-05-14T15:54:42.061Z,2.40
2023-05-14T16:10:03.741Z,2.40
2023-05-14T16:25:25.186Z,1.80
2023-05-14T16:40:46.325Z,2.13
2023-05-14T16:56:07.923Z,2.27
2023-05-14T17:11:29.079Z,2.43
2023-05-14T17:26:50.467Z,3.03
2023-05-14T17:42:11.948Z,2.37
2023-05-14T17:57:33.080Z,2.53
2023-05-14T18:12:54.105Z,2.63
2023-05-14T18:28:15.613Z,3.20
2023-05-14T18:43:36.909Z,2.80
2023-05-14T18:58:58.024Z,2.40
2023-05-14T19:14:19.325Z,2.90
2023-05-14T19:29:40.719Z,1.73
2023-05-14T19:45:05.137Z,7.33
2023-05-14T20:00:26.871Z,2.87
2023-05-14T20:15:48.061Z,7.17
2023-05-14T20:31:09.384Z,4.63
2023-05-14T20:46:30.570Z,5.03
2023-05-14T21:01:51.987Z,3.67
2023-05-14T21:17:13.300Z,5.20
2023-05-14T21:32:34.782Z,4.27
2023-05-14T21:47:56.116Z,7.33
2023-05-14T22:03:20.090Z,12.03
2023-05-14T22:18:41.819Z,6.20
2023-05-14T22:34:02.946Z,8.00
2023-05-14T22:49:24.288Z,4.53
2023-05-14T23:04:45.396Z,6.90
2023-05-14T23:20:07.054Z,4.93
2023-05-14T23:35:28.684Z,4.50
2023-05-14T23:50:50.131Z,4.17
